sensor_id;sensor_type;location;lat;lon;timestamp;temperature;humidity
3715;DHT22;1873;49.988;8.674;2022-11-10T00:01:36;10.80;99.90
3715;DHT22;1873;49.988;8.674;2022-11-10T00:04:05;10.70;99.90
3715;DHT22;1873;49.988;8.674;2022-11-10T00:06:34;10.80;99.90
3715;DHT22;1873;49.988;8.674;2022-11-10T00:09:02;10.70;99.90
3715;DHT22;1873;49.988;8.674;2022-11-10T00:11:33;10.70;99.90
3715;DHT22;1873;49.988;8.674;2022-11-10T00:14:01;10.70;99.90
3715;DHT22;1873;49.988;8.674;2022-11-10T00:16:47;10.70;99.90
3715;DHT22;1873;49.988;8.674;2022-11-10T00:19:32;10.70;99.90
3715;DHT22;1873;49.988;8.674;2022-11-10T00:22:01;10.70;99.90
3715;DHT22;1873;49.988;8.674;2022-11-10T00:24:31;10.70;99.90
3715;DHT22;1873;49.988;8.674;2022-11-10T00:27:01;10.70;99.90
3715;DHT22;1873;49.988;8.674;2022-11-10T00:29:29;10.70;99.90
3715;DHT22;1873;49.988;8.674;2022-11-10T00:31:58;10.70;99.90
3715;DHT22;1873;49.988;8.674;2022-11-10T00:34:26;10.60;99.90
3715;DHT22;1873;49.988;8.674;2022-11-10T00:36:54;10.60;99.90
3715;DHT22;1873;49.988;8.674;2022-11-10T00:39:22;10.50;99.90
3715;DHT22;1873;49.988;8.674;2022-11-10T00:41:50;10.60;99.90
3715;DHT22;1873;49.988;8.674;2022-11-10T00:44:21;10.50;99.90
3715;DHT22;1873;49.988;8.674;2022-11-10T00:46:51;10.50;99.90
3715;DHT22;1873;49.988;8.674;2022-11-10T00:49:28;10.50;99.90
3715;DHT22;1873;49.988;8.674;2022-11-10T00:52:04;10.50;99.90
3715;DHT22;1873;49.988;8.674;2022-11-10T00:54:36;10.50;99.90
3715;DHT22;1873;49.988;8.674;2022-11-10T00:57:04;10.40;99.90
3715;DHT22;1873;49.988;8.674;2022-11-10T00:59:35;10.30;99.90
3715;DHT22;1873;49.988;8.674;2022-11-10T01:02:03;10.10;99.90
3715;DHT22;1873;49.988;8.674;2022-11-10T01:04:31;10.20;99.90
3715;DHT22;1873;49.988;8.674;2022-11-10T01:07:00;10.10;99.90
3715;DHT22;1873;49.988;8.674;2022-11-10T01:09:28;10.10;99.90
3715;DHT22;1873;49.988;8.674;2022-11-10T01:11:58;10.00;99.90
3715;DHT22;1873;49.988;8.674;2022-11-10T01:14:26;10.00;99.90
3715;DHT22;1873;49.988;8.674;2022-11-10T01:16:57;10.00;99.90
3715;DHT22;1873;49.988;8.674;2022-11-10T01:19:25;9.90;99.90
3715;DHT22;1873;49.988;8.674;2022-11-10T01:21:54;9.80;99.90
3715;DHT22;1873;49.988;8.674;2022-11-10T01:24:23;9.70;99.90
3715;DHT22;1873;49.988;8.674;2022-11-10T01:26:53;9.70;99.90
3715;DHT22;1873;49.988;8.674;2022-11-10T01:29:22;9.70;99.90
3715;DHT22;1873;49.988;8.674;2022-11-10T01:31:56;9.70;99.90
3715;DHT22;1873;49.988;8.674;2022-11-10T01:34:24;9.80;99.90
3715;DHT22;1873;49.988;8.674;2022-11-10T01:36:52;9.80;99.90
3715;DHT22;1873;49.988;8.674;2022-11-10T01:39:21;9.80;99.90
3715;DHT22;1873;49.988;8.674;2022-11-10T01:41:49;9.80;99.90
3715;DHT22;1873;49.988;8.674;2022-11-10T01:44:19;9.90;99.90
3715;DHT22;1873;49.988;8.674;2022-11-10T01:46:48;9.70;99.90
3715;DHT22;1873;49.988;8.674;2022-11-10T01:49:21;9.80;99.90
3715;DHT22;1873;49.988;8.674;2022-11-10T01:51:55;9.80;99.90
3715;DHT22;1873;49.988;8.674;2022-11-10T01:54:26;9.80;99.90
3715;DHT22;1873;49.988;8.674;2022-11-10T01:56:59;9.80;99.90
3715;DHT22;1873;49.988;8.674;2022-11-10T01:59:31;9.60;99.90
3715;DHT22;1873;49.988;8.674;2022-11-10T02:02:08;9.60;99.90
3715;DHT22;1873;49.988;8.674;2022-11-10T02:04:41;9.60;99.90
3715;DHT22;1873;49.988;8.674;2022-11-10T02:07:11;9.60;99.90
3715;DHT22;1873;49.988;8.674;2022-11-10T02:09:40;9.60;99.90
3715;DHT22;1873;49.988;8.674;2022-11-10T02:12:08;9.70;99.90
3715;DHT22;1873;49.988;8.674;2022-11-10T02:14:37;9.60;99.90
3715;DHT22;1873;49.988;8.674;2022-11-10T02:17:05;9.70;99.90
3715;DHT22;1873;49.988;8.674;2022-11-10T02:19:40;9.70;99.90
3715;DHT22;1873;49.988;8.674;2022-11-10T02:22:10;9.70;99.90
3715;DHT22;1873;49.988;8.674;2022-11-10T02:24:39;9.60;99.90
3715;DHT22;1873;49.988;8.674;2022-11-10T02:27:09;9.70;99.90
3715;DHT22;1873;49.988;8.674;2022-11-10T02:29:37;9.60;99.90
3715;DHT22;1873;49.988;8.674;2022-11-10T02:32:06;9.70;99.90
3715;DHT22;1873;49.988;8.674;2022-11-10T02:34:36;9.50;99.90
3715;DHT22;1873;49.988;8.674;2022-11-10T02:37:04;9.50;99.90
3715;DHT22;1873;49.988;8.674;2022-11-10T02:39:36;9.60;99.90
3715;DHT22;1873;49.988;8.674;2022-11-10T02:42:05;9.60;99.90
3715;DHT22;1873;49.988;8.674;2022-11-10T02:44:36;9.60;99.90
3715;DHT22;1873;49.988;8.674;2022-11-10T02:47:04;9.50;99.90
3715;DHT22;1873;49.988;8.674;2022-11-10T02:49:33;9.50;99.90
3715;DHT22;1873;49.988;8.674;2022-11-10T02:52:01;9.50;99.90
3715;DHT22;1873;49.988;8.674;2022-11-10T02:54:30;9.50;99.90
3715;DHT22;1873;49.988;8.674;2022-11-10T02:57:01;9.60;99.90
3715;DHT22;1873;49.988;8.674;2022-11-10T02:59:29;9.60;99.90
3715;DHT22;1873;49.988;8.674;2022-11-10T03:01:58;9.60;99.90
3715;DHT22;1873;49.988;8.674;2022-11-10T03:04:26;9.50;99.90
3715;DHT22;1873;49.988;8.674;2022-11-10T03:06:54;9.50;99.90
3715;DHT22;1873;49.988;8.674;2022-11-10T03:09:22;9.50;99.90
3715;DHT22;1873;49.988;8.674;2022-11-10T03:11:51;9.40;99.90
3715;DHT22;1873;49.988;8.674;2022-11-10T03:14:21;9.50;99.90
3715;DHT22;1873;49.988;8.674;2022-11-10T03:16:49;9.50;99.90
3715;DHT22;1873;49.988;8.674;2022-11-10T03:19:17;9.40;99.90
3715;DHT22;1873;49.988;8.674;2022-11-10T03:21:45;9.40;99.90
3715;DHT22;1873;49.988;8.674;2022-11-10T03:24:14;9.40;99.90
3715;DHT22;1873;49.988;8.674;2022-11-10T03:26:42;9.50;99.90
3715;DHT22;1873;49.988;8.674;2022-11-10T03:29:10;9.50;99.90
3715;DHT22;1873;49.988;8.674;2022-11-10T03:31:40;9.40;99.90
3715;DHT22;1873;49.988;8.674;2022-11-10T03:34:09;9.40;99.90
3715;DHT22;1873;49.988;8.674;2022-11-10T03:36:37;9.30;99.90
3715;DHT22;1873;49.988;8.674;2022-11-10T03:39:05;9.30;99.90
3715;DHT22;1873;49.988;8.674;2022-11-10T03:41:34;9.40;99.90
3715;DHT22;1873;49.988;8.674;2022-11-10T03:44:02;9.40;99.90
3715;DHT22;1873;49.988;8.674;2022-11-10T03:46:31;9.50;99.90
3715;DHT22;1873;49.988;8.674;2022-11-10T03:49:01;9.30;99.90
3715;DHT22;1873;49.988;8.674;2022-11-10T03:51:32;9.30;99.90
3715;DHT22;1873;49.988;8.674;2022-11-10T03:54:01;9.30;99.90
3715;DHT22;1873;49.988;8.674;2022-11-10T03:56:29;9.30;99.90
3715;DHT22;1873;49.988;8.674;2022-11-10T03:58:57;9.30;99.90
3715;DHT22;1873;49.988;8.674;2022-11-10T04:01:26;9.30;99.90
3715;DHT22;1873;49.988;8.674;2022-11-10T04:03:54;9.30;99.90
3715;DHT22;1873;49.988;8.674;2022-11-10T04:06:25;9.20;99.90
3715;DHT22;1873;49.988;8.674;2022-11-10T04:09:11;9.30;99.90
3715;DHT22;1873;49.988;8.674;2022-11-10T04:11:42;9.20;99.90
3715;DHT22;1873;49.988;8.674;2022-11-10T04:14:27;9.20;99.90
3715;DHT22;1873;49.988;8.674;2022-11-10T04:17:13;9.20;99.90
3715;DHT22;1873;49.988;8.674;2022-11-10T04:19:41;9.20;99.90
3715;DHT22;1873;49.988;8.674;2022-11-10T04:22:12;9.10;99.90
3715;DHT22;1873;49.988;8.674;2022-11-10T04:25:00;9.20;99.90
3715;DHT22;1873;49.988;8.674;2022-11-10T04:27:28;9.10;99.90
3715;DHT22;1873;49.988;8.674;2022-11-10T04:29:56;9.20;99.90
3715;DHT22;1873;49.988;8.674;2022-11-10T04:32:25;9.20;99.90
3715;DHT22;1873;49.988;8.674;2022-11-10T04:34:53;9.30;99.90
3715;DHT22;1873;49.988;8.674;2022-11-10T04:37:23;9.30;99.90
3715;DHT22;1873;49.988;8.674;2022-11-10T04:39:51;9.30;99.90
3715;DHT22;1873;49.988;8.674;2022-11-10T04:42:20;9.20;99.90
3715;DHT22;1873;49.988;8.674;2022-11-10T04:44:48;9.20;99.90
3715;DHT22;1873;49.988;8.674;2022-11-10T04:47:16;9.20;99.90
3715;DHT22;1873;49.988;8.674;2022-11-10T04:49:46;9.20;99.90
3715;DHT22;1873;49.988;8.674;2022-11-10T04:52:15;9.20;99.90
3715;DHT22;1873;49.988;8.674;2022-11-10T04:54:45;9.20;99.90
3715;DHT22;1873;49.988;8.674;2022-11-10T04:57:13;9.20;99.90
3715;DHT22;1873;49.988;8.674;2022-11-10T04:59:42;9.10;99.90
3715;DHT22;1873;49.988;8.674;2022-11-10T05:02:12;9.10;99.90
3715;DHT22;1873;49.988;8.674;2022-11-10T05:04:42;9.10;99.90
3715;DHT22;1873;49.988;8.674;2022-11-10T05:07:10;9.20;99.90
3715;DHT22;1873;49.988;8.674;2022-11-10T05:09:39;9.10;99.90
3715;DHT22;1873;49.988;8.674;2022-11-10T05:12:09;9.10;99.90
3715;DHT22;1873;49.988;8.674;2022-11-10T05:14:48;9.00;99.90
3715;DHT22;1873;49.988;8.674;2022-11-10T05:17:16;9.00;99.90
3715;DHT22;1873;49.988;8.674;2022-11-10T05:19:45;9.00;99.90
3715;DHT22;1873;49.988;8.674;2022-11-10T05:22:14;9.00;99.90
3715;DHT22;1873;49.988;8.674;2022-11-10T05:24:44;9.10;99.90
3715;DHT22;1873;49.988;8.674;2022-11-10T05:27:14;9.10;99.90
3715;DHT22;1873;49.988;8.674;2022-11-10T05:29:42;9.00;99.90
3715;DHT22;1873;49.988;8.674;2022-11-10T05:32:11;9.10;99.90
3715;DHT22;1873;49.988;8.674;2022-11-10T05:34:39;9.10;99.90
3715;DHT22;1873;49.988;8.674;2022-11-10T05:37:08;9.10;99.90
3715;DHT22;1873;49.988;8.674;2022-11-10T05:39:36;9.00;99.90
3715;DHT22;1873;49.988;8.674;2022-11-10T05:42:04;9.10;99.90
3715;DHT22;1873;49.988;8.674;2022-11-10T05:44:34;9.20;99.90
3715;DHT22;1873;49.988;8.674;2022-11-10T05:47:03;9.10;99.90
3715;DHT22;1873;49.988;8.674;2022-11-10T05:49:32;9.10;99.90
3715;DHT22;1873;49.988;8.674;2022-11-10T05:52:01;9.00;99.90
3715;DHT22;1873;49.988;8.674;2022-11-10T05:54:30;9.00;99.90
3715;DHT22;1873;49.988;8.674;2022-11-10T05:56:58;8.90;99.90
3715;DHT22;1873;49.988;8.674;2022-11-10T05:59:27;9.00;99.90
3715;DHT22;1873;49.988;8.674;2022-11-10T06:01:57;9.10;99.90
3715;DHT22;1873;49.988;8.674;2022-11-10T06:04:25;9.10;99.90
3715;DHT22;1873;49.988;8.674;2022-11-10T06:06:54;9.10;99.90
3715;DHT22;1873;49.988;8.674;2022-11-10T06:09:22;9.20;99.90
3715;DHT22;1873;49.988;8.674;2022-11-10T06:11:51;9.20;99.90
3715;DHT22;1873;49.988;8.674;2022-11-10T06:53:05;8.90;99.90
3715;DHT22;1873;49.988;8.674;2022-11-10T06:56:14;9.00;99.90
3715;DHT22;1873;49.988;8.674;2022-11-10T06:58:42;9.00;99.90
3715;DHT22;1873;49.988;8.674;2022-11-10T07:01:12;9.10;99.90
3715;DHT22;1873;49.988;8.674;2022-11-10T07:03:47;9.00;99.90
3715;DHT22;1873;49.988;8.674;2022-11-10T07:07:00;9.00;99.90
3715;DHT22;1873;49.988;8.674;2022-11-10T07:09:59;9.00;99.90
3715;DHT22;1873;49.988;8.674;2022-11-10T07:12:32;9.00;99.90
3715;DHT22;1873;49.988;8.674;2022-11-10T07:15:00;9.00;99.90
3715;DHT22;1873;49.988;8.674;2022-11-10T07:17:31;9.00;99.90
3715;DHT22;1873;49.988;8.674;2022-11-10T07:19:59;9.00;99.90
3715;DHT22;1873;49.988;8.674;2022-11-10T07:22:27;9.10;99.90
3715;DHT22;1873;49.988;8.674;2022-11-10T07:24:56;9.20;99.90
3715;DHT22;1873;49.988;8.674;2022-11-10T07:27:38;9.20;99.90
3715;DHT22;1873;49.988;8.674;2022-11-10T07:30:09;9.30;99.90
3715;DHT22;1873;49.988;8.674;2022-11-10T07:32:39;9.30;99.90
3715;DHT22;1873;49.988;8.674;2022-11-10T07:35:08;9.40;99.90
3715;DHT22;1873;49.988;8.674;2022-11-10T07:37:37;9.40;99.90
3715;DHT22;1873;49.988;8.674;2022-11-10T07:40:06;9.50;99.90
3715;DHT22;1873;49.988;8.674;2022-11-10T07:42:39;9.60;99.90
3715;DHT22;1873;49.988;8.674;2022-11-10T07:45:10;9.70;99.90
3715;DHT22;1873;49.988;8.674;2022-11-10T07:47:39;9.70;99.90
3715;DHT22;1873;49.988;8.674;2022-11-10T07:50:08;9.70;99.90
3715;DHT22;1873;49.988;8.674;2022-11-10T07:52:39;9.70;99.90
3715;DHT22;1873;49.988;8.674;2022-11-10T07:55:19;9.80;99.90
3715;DHT22;1873;49.988;8.674;2022-11-10T07:57:49;9.90;99.90
3715;DHT22;1873;49.988;8.674;2022-11-10T08:00:19;10.10;99.90
3715;DHT22;1873;49.988;8.674;2022-11-10T08:02:47;10.10;99.90
3715;DHT22;1873;49.988;8.674;2022-11-10T08:05:16;10.30;99.90
3715;DHT22;1873;49.988;8.674;2022-11-10T08:07:45;10.40;99.90
3715;DHT22;1873;49.988;8.674;2022-11-10T08:10:16;10.40;99.90
3715;DHT22;1873;49.988;8.674;2022-11-10T08:12:45;10.40;99.90
3715;DHT22;1873;49.988;8.674;2022-11-10T08:15:15;10.50;99.90
3715;DHT22;1873;49.988;8.674;2022-11-10T08:17:43;10.80;99.90
3715;DHT22;1873;49.988;8.674;2022-11-10T08:20:12;10.90;99.90
3715;DHT22;1873;49.988;8.674;2022-11-10T08:22:41;11.00;99.90
3715;DHT22;1873;49.988;8.674;2022-11-10T08:25:10;11.10;99.90
3715;DHT22;1873;49.988;8.674;2022-11-10T08:27:39;11.00;99.90
3715;DHT22;1873;49.988;8.674;2022-11-10T08:30:08;11.00;99.90
3715;DHT22;1873;49.988;8.674;2022-11-10T08:32:39;11.00;99.90
3715;DHT22;1873;49.988;8.674;2022-11-10T08:35:08;11.20;99.90
3715;DHT22;1873;49.988;8.674;2022-11-10T08:37:37;11.20;99.90
3715;DHT22;1873;49.988;8.674;2022-11-10T08:40:06;11.10;99.90
3715;DHT22;1873;49.988;8.674;2022-11-10T08:42:36;11.20;99.90
3715;DHT22;1873;49.988;8.674;2022-11-10T08:45:05;11.30;99.90
3715;DHT22;1873;49.988;8.674;2022-11-10T08:47:33;11.50;99.90
3715;DHT22;1873;49.988;8.674;2022-11-10T08:50:04;11.40;99.90
3715;DHT22;1873;49.988;8.674;2022-11-10T08:52:59;11.40;99.90
3715;DHT22;1873;49.988;8.674;2022-11-10T08:55:28;11.40;99.90
3715;DHT22;1873;49.988;8.674;2022-11-10T08:57:59;11.40;99.90
3715;DHT22;1873;49.988;8.674;2022-11-10T09:00:30;11.50;99.90
3715;DHT22;1873;49.988;8.674;2022-11-10T09:03:03;11.50;99.90
3715;DHT22;1873;49.988;8.674;2022-11-10T09:05:34;11.40;99.90
3715;DHT22;1873;49.988;8.674;2022-11-10T09:08:03;11.70;99.90
3715;DHT22;1873;49.988;8.674;2022-11-10T09:10:33;11.80;99.90
3715;DHT22;1873;49.988;8.674;2022-11-10T09:13:03;11.90;99.90
3715;DHT22;1873;49.988;8.674;2022-11-10T09:15:33;11.90;99.90
3715;DHT22;1873;49.988;8.674;2022-11-10T09:18:03;11.90;99.90
3715;DHT22;1873;49.988;8.674;2022-11-10T09:26:58;12.00;99.90
3715;DHT22;1873;49.988;8.674;2022-11-10T09:29:29;11.80;99.90
3715;DHT22;1873;49.988;8.674;2022-11-10T09:32:26;12.00;99.90
3715;DHT22;1873;49.988;8.674;2022-11-10T09:34:54;11.90;99.90
3715;DHT22;1873;49.988;8.674;2022-11-10T09:45:00;12.20;99.90
3715;DHT22;1873;49.988;8.674;2022-11-10T09:51:04;12.30;99.90
3715;DHT22;1873;49.988;8.674;2022-11-10T09:53:43;12.60;99.90
3715;DHT22;1873;49.988;8.674;2022-11-10T09:56:19;12.60;99.90
3715;DHT22;1873;49.988;8.674;2022-11-10T09:58:49;12.80;99.90
3715;DHT22;1873;49.988;8.674;2022-11-10T10:01:27;12.80;99.90
3715;DHT22;1873;49.988;8.674;2022-11-10T10:04:06;12.90;99.90
3715;DHT22;1873;49.988;8.674;2022-11-10T10:06:47;12.80;99.90
3715;DHT22;1873;49.988;8.674;2022-11-10T10:09:43;12.80;99.90
3715;DHT22;1873;49.988;8.674;2022-11-10T10:12:24;12.80;99.90
3715;DHT22;1873;49.988;8.674;2022-11-10T10:15:11;12.80;99.90
3715;DHT22;1873;49.988;8.674;2022-11-10T10:21:27;12.70;99.90
3715;DHT22;1873;49.988;8.674;2022-11-10T10:23:58;12.70;99.90
3715;DHT22;1873;49.988;8.674;2022-11-10T10:26:39;12.80;99.90
3715;DHT22;1873;49.988;8.674;2022-11-10T10:29:26;12.60;99.90
3715;DHT22;1873;49.988;8.674;2022-11-10T10:32:07;12.40;99.90
3715;DHT22;1873;49.988;8.674;2022-11-10T10:34:41;12.20;99.90
3715;DHT22;1873;49.988;8.674;2022-11-10T10:37:33;12.20;99.90
3715;DHT22;1873;49.988;8.674;2022-11-10T10:40:11;12.20;99.90
3715;DHT22;1873;49.988;8.674;2022-11-10T10:42:41;12.30;99.90
3715;DHT22;1873;49.988;8.674;2022-11-10T10:45:24;12.40;99.90
3715;DHT22;1873;49.988;8.674;2022-11-10T10:47:55;12.40;99.90
3715;DHT22;1873;49.988;8.674;2022-11-10T10:50:31;12.40;99.90
3715;DHT22;1873;49.988;8.674;2022-11-10T10:56:19;12.30;99.90
3715;DHT22;1873;49.988;8.674;2022-11-10T10:58:51;12.50;99.90
3715;DHT22;1873;49.988;8.674;2022-11-10T11:01:27;12.70;99.90
3715;DHT22;1873;49.988;8.674;2022-11-10T11:03:58;12.80;99.90
3715;DHT22;1873;49.988;8.674;2022-11-10T11:06:32;12.80;99.90
3715;DHT22;1873;49.988;8.674;2022-11-10T11:09:07;12.90;99.90
3715;DHT22;1873;49.988;8.674;2022-11-10T11:11:45;12.90;99.90
3715;DHT22;1873;49.988;8.674;2022-11-10T11:18:01;13.30;99.90
3715;DHT22;1873;49.988;8.674;2022-11-10T11:20:39;13.40;99.90
3715;DHT22;1873;49.988;8.674;2022-11-10T11:24:18;13.20;99.90
3715;DHT22;1873;49.988;8.674;2022-11-10T11:26:55;13.10;99.90
3715;DHT22;1873;49.988;8.674;2022-11-10T11:29:44;13.00;99.90
3715;DHT22;1873;49.988;8.674;2022-11-10T11:32:27;13.00;99.90
3715;DHT22;1873;49.988;8.674;2022-11-10T11:35:06;13.00;99.90
3715;DHT22;1873;49.988;8.674;2022-11-10T11:37:49;12.90;99.90
3715;DHT22;1873;49.988;8.674;2022-11-10T11:40:52;12.90;99.90
3715;DHT22;1873;49.988;8.674;2022-11-10T11:47:27;13.20;99.90
3715;DHT22;1873;49.988;8.674;2022-11-10T11:51:15;13.30;99.90
3715;DHT22;1873;49.988;8.674;2022-11-10T11:54:16;13.50;99.90
3715;DHT22;1873;49.988;8.674;2022-11-10T11:57:40;13.50;99.90
3715;DHT22;1873;49.988;8.674;2022-11-10T12:04:40;13.40;99.90
3715;DHT22;1873;49.988;8.674;2022-11-10T12:07:18;13.50;99.90
3715;DHT22;1873;49.988;8.674;2022-11-10T12:09:56;13.40;99.90
3715;DHT22;1873;49.988;8.674;2022-11-10T12:12:46;13.40;99.90
3715;DHT22;1873;49.988;8.674;2022-11-10T12:15:27;13.40;99.90
3715;DHT22;1873;49.988;8.674;2022-11-10T12:18:06;13.40;99.90
3715;DHT22;1873;49.988;8.674;2022-11-10T12:20:49;13.40;99.90
3715;DHT22;1873;49.988;8.674;2022-11-10T12:23:28;13.50;99.90
3715;DHT22;1873;49.988;8.674;2022-11-10T12:26:08;13.50;99.90
3715;DHT22;1873;49.988;8.674;2022-11-10T12:28:44;13.40;99.90
3715;DHT22;1873;49.988;8.674;2022-11-10T12:31:19;13.40;99.90
3715;DHT22;1873;49.988;8.674;2022-11-10T12:33:52;13.50;99.90
3715;DHT22;1873;49.988;8.674;2022-11-10T12:36:26;13.50;99.90
3715;DHT22;1873;49.988;8.674;2022-11-10T12:38:59;13.60;99.90
3715;DHT22;1873;49.988;8.674;2022-11-10T12:41:36;13.50;99.90
3715;DHT22;1873;49.988;8.674;2022-11-10T12:44:17;13.50;99.90
3715;DHT22;1873;49.988;8.674;2022-11-10T12:46:49;13.50;99.90
3715;DHT22;1873;49.988;8.674;2022-11-10T12:49:30;13.50;99.90
3715;DHT22;1873;49.988;8.674;2022-11-10T12:52:08;13.60;99.90
3715;DHT22;1873;49.988;8.674;2022-11-10T12:54:40;13.70;99.90
3715;DHT22;1873;49.988;8.674;2022-11-10T12:57:13;13.70;99.90
3715;DHT22;1873;49.988;8.674;2022-11-10T12:59:52;13.70;99.90
3715;DHT22;1873;49.988;8.674;2022-11-10T13:02:26;13.70;99.90
3715;DHT22;1873;49.988;8.674;2022-11-10T13:05:30;13.70;99.90
3715;DHT22;1873;49.988;8.674;2022-11-10T13:08:34;13.80;99.90
3715;DHT22;1873;49.988;8.674;2022-11-10T13:11:17;13.70;99.90
3715;DHT22;1873;49.988;8.674;2022-11-10T13:13:51;13.70;99.90
3715;DHT22;1873;49.988;8.674;2022-11-10T13:16:45;13.70;99.90
3715;DHT22;1873;49.988;8.674;2022-11-10T13:19:49;13.70;99.90
3715;DHT22;1873;49.988;8.674;2022-11-10T13:22:31;13.70;99.90
3715;DHT22;1873;49.988;8.674;2022-11-10T13:25:47;13.70;99.90
3715;DHT22;1873;49.988;8.674;2022-11-10T13:28:55;13.70;99.90
3715;DHT22;1873;49.988;8.674;2022-11-10T13:31:49;13.60;99.90
3715;DHT22;1873;49.988;8.674;2022-11-10T13:34:31;13.60;99.90
3715;DHT22;1873;49.988;8.674;2022-11-10T13:37:00;13.60;99.90
3715;DHT22;1873;49.988;8.674;2022-11-10T13:39:31;13.60;99.90
3715;DHT22;1873;49.988;8.674;2022-11-10T13:42:17;13.60;99.90
3715;DHT22;1873;49.988;8.674;2022-11-10T13:44:53;13.50;99.90
3715;DHT22;1873;49.988;8.674;2022-11-10T13:47:54;13.50;99.90
3715;DHT22;1873;49.988;8.674;2022-11-10T13:50:39;13.50;99.90
3715;DHT22;1873;49.988;8.674;2022-11-10T13:53:22;13.50;99.90
3715;DHT22;1873;49.988;8.674;2022-11-10T13:56:07;13.40;99.90
3715;DHT22;1873;49.988;8.674;2022-11-10T13:58:44;13.40;99.90
3715;DHT22;1873;49.988;8.674;2022-11-10T14:01:25;13.40;99.90
3715;DHT22;1873;49.988;8.674;2022-11-10T14:04:00;13.30;99.90
3715;DHT22;1873;49.988;8.674;2022-11-10T14:06:37;13.30;99.90
3715;DHT22;1873;49.988;8.674;2022-11-10T14:09:20;13.30;99.90
3715;DHT22;1873;49.988;8.674;2022-11-10T14:11:55;13.30;99.90
3715;DHT22;1873;49.988;8.674;2022-11-10T14:14:32;13.30;99.90
3715;DHT22;1873;49.988;8.674;2022-11-10T14:17:03;13.20;99.90
3715;DHT22;1873;49.988;8.674;2022-11-10T14:19:42;13.20;99.90
3715;DHT22;1873;49.988;8.674;2022-11-10T14:22:34;13.20;99.90
3715;DHT22;1873;49.988;8.674;2022-11-10T14:25:18;13.20;99.90
3715;DHT22;1873;49.988;8.674;2022-11-10T14:27:51;13.20;99.90
3715;DHT22;1873;49.988;8.674;2022-11-10T14:30:27;13.20;99.90
3715;DHT22;1873;49.988;8.674;2022-11-10T14:32:57;13.10;99.90
3715;DHT22;1873;49.988;8.674;2022-11-10T14:35:28;13.10;99.90
3715;DHT22;1873;49.988;8.674;2022-11-10T14:37:57;13.10;99.90
3715;DHT22;1873;49.988;8.674;2022-11-10T14:40:27;13.20;99.90
3715;DHT22;1873;49.988;8.674;2022-11-10T14:42:56;13.10;99.90
3715;DHT22;1873;49.988;8.674;2022-11-10T14:45:27;13.10;99.90
3715;DHT22;1873;49.988;8.674;2022-11-10T14:47:58;13.10;99.90
3715;DHT22;1873;49.988;8.674;2022-11-10T14:50:27;13.00;99.90
3715;DHT22;1873;49.988;8.674;2022-11-10T14:53:01;13.00;99.90
3715;DHT22;1873;49.988;8.674;2022-11-10T14:55:33;13.00;99.90
3715;DHT22;1873;49.988;8.674;2022-11-10T14:58:10;13.00;99.90
3715;DHT22;1873;49.988;8.674;2022-11-10T15:00:46;12.90;99.90
3715;DHT22;1873;49.988;8.674;2022-11-10T15:03:31;12.90;99.90
3715;DHT22;1873;49.988;8.674;2022-11-10T15:06:01;12.90;99.90
3715;DHT22;1873;49.988;8.674;2022-11-10T15:08:31;12.90;99.90
3715;DHT22;1873;49.988;8.674;2022-11-10T15:10:59;12.90;99.90
3715;DHT22;1873;49.988;8.674;2022-11-10T15:13:35;12.90;99.90
3715;DHT22;1873;49.988;8.674;2022-11-10T15:16:30;12.80;99.90
3715;DHT22;1873;49.988;8.674;2022-11-10T15:19:23;12.80;99.90
3715;DHT22;1873;49.988;8.674;2022-11-10T15:22:15;12.80;99.90
3715;DHT22;1873;49.988;8.674;2022-11-10T15:24:46;12.80;99.90
3715;DHT22;1873;49.988;8.674;2022-11-10T15:27:28;12.70;99.90
3715;DHT22;1873;49.988;8.674;2022-11-10T15:30:20;12.70;99.90
3715;DHT22;1873;49.988;8.674;2022-11-10T15:32:56;12.70;99.90
3715;DHT22;1873;49.988;8.674;2022-11-10T15:35:39;12.60;99.90
3715;DHT22;1873;49.988;8.674;2022-11-10T15:38:27;12.60;99.90
3715;DHT22;1873;49.988;8.674;2022-11-10T15:41:14;12.50;99.90
3715;DHT22;1873;49.988;8.674;2022-11-10T15:43:52;12.50;99.90
3715;DHT22;1873;49.988;8.674;2022-11-10T15:46:23;12.50;99.90
3715;DHT22;1873;49.988;8.674;2022-11-10T15:49:09;12.40;99.90
3715;DHT22;1873;49.988;8.674;2022-11-10T15:52:14;12.40;99.90
3715;DHT22;1873;49.988;8.674;2022-11-10T15:54:45;12.40;99.90
3715;DHT22;1873;49.988;8.674;2022-11-10T15:57:17;12.30;99.90
3715;DHT22;1873;49.988;8.674;2022-11-10T15:59:51;12.30;99.90
3715;DHT22;1873;49.988;8.674;2022-11-10T16:02:23;12.30;99.90
3715;DHT22;1873;49.988;8.674;2022-11-10T16:04:54;12.30;99.90
3715;DHT22;1873;49.988;8.674;2022-11-10T16:07:28;12.30;99.90
3715;DHT22;1873;49.988;8.674;2022-11-10T16:09:57;12.20;99.90
3715;DHT22;1873;49.988;8.674;2022-11-10T16:12:26;12.20;99.90
3715;DHT22;1873;49.988;8.674;2022-11-10T16:14:55;12.10;99.90
3715;DHT22;1873;49.988;8.674;2022-11-10T16:17:25;12.00;99.90
3715;DHT22;1873;49.988;8.674;2022-11-10T16:19:55;12.00;99.90
3715;DHT22;1873;49.988;8.674;2022-11-10T16:22:24;12.00;99.90
3715;DHT22;1873;49.988;8.674;2022-11-10T16:24:53;12.00;99.90
3715;DHT22;1873;49.988;8.674;2022-11-10T16:27:22;11.90;99.90
3715;DHT22;1873;49.988;8.674;2022-11-10T16:29:51;11.90;99.90
3715;DHT22;1873;49.988;8.674;2022-11-10T16:32:20;11.80;99.90
3715;DHT22;1873;49.988;8.674;2022-11-10T16:34:48;11.80;99.90
3715;DHT22;1873;49.988;8.674;2022-11-10T16:37:19;11.80;99.90
3715;DHT22;1873;49.988;8.674;2022-11-10T16:39:51;11.80;99.90
3715;DHT22;1873;49.988;8.674;2022-11-10T16:42:20;11.70;99.90
3715;DHT22;1873;49.988;8.674;2022-11-10T16:44:48;11.70;99.90
3715;DHT22;1873;49.988;8.674;2022-11-10T16:47:17;11.60;99.90
3715;DHT22;1873;49.988;8.674;2022-11-10T16:49:46;11.60;99.90
3715;DHT22;1873;49.988;8.674;2022-11-10T16:52:21;11.50;99.90
3715;DHT22;1873;49.988;8.674;2022-11-10T16:54:55;11.50;99.90
3715;DHT22;1873;49.988;8.674;2022-11-10T16:57:36;11.40;99.90
3715;DHT22;1873;49.988;8.674;2022-11-10T17:00:09;11.30;99.90
3715;DHT22;1873;49.988;8.674;2022-11-10T17:02:44;11.30;99.90
3715;DHT22;1873;49.988;8.674;2022-11-10T17:05:47;11.30;99.90
3715;DHT22;1873;49.988;8.674;2022-11-10T17:16:06;11.30;99.90
3715;DHT22;1873;49.988;8.674;2022-11-10T17:19:06;11.30;99.90
3715;DHT22;1873;49.988;8.674;2022-11-10T17:21:38;11.30;99.90
3715;DHT22;1873;49.988;8.674;2022-11-10T17:24:25;11.30;99.90
3715;DHT22;1873;49.988;8.674;2022-11-10T17:27:31;11.30;99.90
3715;DHT22;1873;49.988;8.674;2022-11-10T17:30:49;11.20;99.90
3715;DHT22;1873;49.988;8.674;2022-11-10T17:33:28;11.20;99.90
3715;DHT22;1873;49.988;8.674;2022-11-10T17:36:23;11.20;99.90
3715;DHT22;1873;49.988;8.674;2022-11-10T17:38:57;11.20;99.90
3715;DHT22;1873;49.988;8.674;2022-11-10T17:41:50;11.20;99.90
3715;DHT22;1873;49.988;8.674;2022-11-10T17:44:43;11.20;99.90
3715;DHT22;1873;49.988;8.674;2022-11-10T17:47:50;11.20;99.90
3715;DHT22;1873;49.988;8.674;2022-11-10T18:02:02;11.20;99.90
3715;DHT22;1873;49.988;8.674;2022-11-10T18:07:23;11.10;99.90
3715;DHT22;1873;49.988;8.674;2022-11-10T18:13:26;11.20;99.90
3715;DHT22;1873;49.988;8.674;2022-11-10T18:16:34;11.20;99.90
3715;DHT22;1873;49.988;8.674;2022-11-10T18:23:55;11.00;99.90
3715;DHT22;1873;49.988;8.674;2022-11-10T18:26:40;10.90;99.90
3715;DHT22;1873;49.988;8.674;2022-11-10T18:29:32;10.70;99.90
3715;DHT22;1873;49.988;8.674;2022-11-10T18:32:04;10.70;99.90
3715;DHT22;1873;49.988;8.674;2022-11-10T18:34:34;10.70;99.90
3715;DHT22;1873;49.988;8.674;2022-11-10T18:37:02;10.70;99.90
3715;DHT22;1873;49.988;8.674;2022-11-10T18:39:32;10.60;99.90
3715;DHT22;1873;49.988;8.674;2022-11-10T18:42:02;10.60;99.90
3715;DHT22;1873;49.988;8.674;2022-11-10T18:44:40;10.50;99.90